Time;durP1;ratioP1;P1;durP2;ratioP2;P2;SDS_P1;SDS_P2;PMS_P1;PMS_P2;Temp;Humidity;BMP_temperature;BMP_pressure;BME280_temperature;BME280_humidity;BME280_pressure;Samples;Min_cycle;Max_cycle;Signal;HPM_P1;HPM_P2
2024/01/02 00:01:05;;;;;;;13.35;2.28;;;;;;;6.36;100.00;99565.25;5051707;28;20040;-70
2024/01/02 00:03:34;;;;;;;15.13;2.63;;;;;;;6.30;100.00;99547.09;5071063;28;20060;-66
2024/01/02 00:06:02;;;;;;;13.80;2.28;;;;;;;6.38;100.00;99557.31;5058440;28;20033;-69
2024/01/02 00:08:32;;;;;;;5.80;1.95;;;;;;;6.34;100.00;99561.81;5054418;28;20832;-68
2024/01/02 00:11:00;;;;;;;12.55;2.78;;;;;;;6.32;100.00;99554.00;5065601;28;20044;-67
2024/01/02 00:13:31;;;;;;;7.30;2.00;;;;;;;6.29;100.00;99542.78;5061234;28;20040;-67
2024/01/02 00:15:59;;;;;;;7.30;2.00;;;;;;;6.34;100.00;99543.44;5069888;28;20496;-66
2024/01/02 00:18:28;;;;;;;11.18;2.13;;;;;;;6.37;100.00;99535.41;5060662;28;20135;-65
2024/01/02 00:20:56;;;;;;;9.40;2.05;;;;;;;6.34;100.00;99530.28;5067950;28;20098;-68
2024/01/02 00:23:24;;;;;;;9.15;1.80;;;;;;;6.36;100.00;99533.69;5075664;28;20051;-67
2024/01/02 00:25:54;;;;;;;8.38;2.00;;;;;;;6.37;100.00;99532.78;5045157;28;20520;-66
2024/01/02 00:28:22;;;;;;;10.57;2.00;;;;;;;6.41;100.00;99521.22;5049751;28;20403;-67
2024/01/02 00:30:54;;;;;;;8.52;2.00;;;;;;;6.41;100.00;99520.34;5044293;28;20483;-67
2024/01/02 00:33:22;;;;;;;8.48;2.25;;;;;;;6.45;100.00;99509.66;5060192;28;20041;-67
2024/01/02 00:35:51;;;;;;;11.73;2.38;;;;;;;6.40;100.00;99505.50;5060553;28;20048;-67
2024/01/02 00:38:22;;;;;;;10.40;2.00;;;;;;;6.49;100.00;99495.41;5056318;28;20056;-67
2024/01/02 00:40:52;;;;;;;9.02;2.15;;;;;;;6.45;100.00;99493.88;5054078;28;20044;-69
2024/01/02 00:43:21;;;;;;;11.40;2.30;;;;;;;6.39;100.00;99490.66;5053215;28;20060;-67
2024/01/02 00:45:49;;;;;;;7.97;2.30;;;;;;;6.43;100.00;99474.66;5041640;28;20082;-69
2024/01/02 00:48:18;;;;;;;11.10;1.80;;;;;;;6.36;100.00;99483.75;5053737;28;21256;-68
2024/01/02 00:50:46;;;;;;;12.40;2.10;;;;;;;6.34;100.00;99482.94;5066686;28;20433;-66
2024/01/02 00:53:14;;;;;;;13.10;2.20;;;;;;;6.36;100.00;99477.63;5059061;28;20404;-67
2024/01/02 00:55:42;;;;;;;5.72;2.00;;;;;;;6.46;100.00;99469.25;5063602;28;20044;-68
2024/01/02 00:58:11;;;;;;;8.02;2.20;;;;;;;6.47;100.00;99468.31;5063710;28;20098;-68
2024/01/02 01:00:40;;;;;;;6.95;2.05;;;;;;;6.43;100.00;99458.88;5068437;28;20041;-70
2024/01/02 01:03:08;;;;;;;11.25;2.22;;;;;;;6.39;100.00;99459.09;5070144;28;20041;-67
2024/01/02 01:05:41;;;;;;;11.80;2.03;;;;;;;6.33;100.00;99452.31;5059495;28;20048;-69
2024/01/02 01:08:08;;;;;;;9.20;2.03;;;;;;;6.32;100.00;99450.59;5061043;28;20151;-69
2024/01/02 01:10:38;;;;;;;5.35;2.08;;;;;;;6.35;100.00;99439.97;5052204;28;20076;-67
2024/01/02 01:13:06;;;;;;;9.88;2.28;;;;;;;6.33;100.00;99436.53;5070646;28;20148;-65
2024/01/02 01:15:35;;;;;;;10.15;2.42;;;;;;;6.24;100.00;99418.56;5062370;28;20036;-68
2024/01/02 01:18:05;;;;;;;6.53;1.80;;;;;;;6.28;100.00;99428.88;5070880;28;20131;-67
2024/01/02 01:20:34;;;;;;;8.57;1.83;;;;;;;6.27;100.00;99418.44;5065236;28;20048;-68
2024/01/02 01:23:02;;;;;;;8.57;1.90;;;;;;;6.32;100.00;99416.44;5058993;28;20119;-68
2024/01/02 01:25:30;;;;;;;8.18;2.20;;;;;;;6.25;100.00;99404.50;5071731;28;20040;-68
2024/01/02 01:28:03;;;;;;;4.65;1.63;;;;;;;6.23;100.00;99404.56;5071410;28;20044;-68
2024/01/02 01:30:31;;;;;;;11.27;2.30;;;;;;;6.26;100.00;99395.69;5051697;28;20046;-67
2024/01/02 01:33:01;;;;;;;5.60;1.50;;;;;;;6.30;100.00;99386.72;5070637;28;20046;-68
2024/01/02 01:35:31;;;;;;;8.65;2.03;;;;;;;6.34;100.00;99386.50;5054418;28;20052;-68
2024/01/02 01:37:59;;;;;;;9.75;2.20;;;;;;;6.26;100.00;99377.28;5063664;28;20090;-69
2024/01/02 01:40:33;;;;;;;5.15;1.80;;;;;;;6.26;100.00;99372.03;5055194;28;20060;-67
2024/01/02 01:43:03;;;;;;;6.07;1.83;;;;;;;6.29;100.00;99372.75;5063903;28;20164;-68
2024/01/02 01:45:32;;;;;;;6.32;1.90;;;;;;;6.26;100.00;99353.63;5061844;28;20048;-69
2024/01/02 01:48:06;;;;;;;8.60;2.10;;;;;;;6.33;100.00;99369.03;5065398;28;20041;-68
2024/01/02 01:50:36;;;;;;;5.75;1.45;;;;;;;6.25;100.00;99358.03;5049942;28;20049;-67
2024/01/02 01:53:07;;;;;;;8.52;2.08;;;;;;;6.25;100.00;99352.78;5056692;28;20530;-68
2024/01/02 01:55:36;;;;;;;5.78;1.70;;;;;;;6.36;100.00;99341.75;5057990;28;20093;-69
2024/01/02 01:58:07;;;;;;;5.72;1.70;;;;;;;6.25;100.00;99338.78;5056081;28;20566;-69
2024/01/02 02:00:35;;;;;;;4.20;1.38;;;;;;;6.29;100.00;99337.72;5053085;28;20134;-67
2024/01/02 02:03:06;;;;;;;5.90;1.83;;;;;;;6.27;100.00;99336.94;5041640;28;20242;-69
2024/01/02 02:05:35;;;;;;;;;;;;;;;6.28;100.00;99331.59;5038331;28;20528;-69
2024/01/02 02:08:06;;;;;;;8.30;2.30;;;;;;;6.41;100.00;99320.50;5048376;28;19928;-69
2024/01/02 02:10:36;;;;;;;5.05;1.70;;;;;;;6.36;100.00;99320.72;5053467;28;20044;-66
2024/01/02 02:13:04;;;;;;;8.98;2.25;;;;;;;6.33;100.00;99307.69;5061300;28;20086;-67
2024/01/02 02:15:34;;;;;;;9.05;1.67;;;;;;;6.33;100.00;99312.97;5048357;28;20151;-68
2024/01/02 02:18:02;;;;;;;8.57;2.40;;;;;;;6.28;100.00;99294.78;5057668;28;20052;-68
2024/01/02 02:20:30;;;;;;;9.32;1.58;;;;;;;6.29;100.00;99293.88;5050649;28;20556;-67
2024/01/02 02:23:00;;;;;;;5.38;1.70;;;;;;;6.24;100.00;99273.97;5052237;28;20569;-67
2024/01/02 02:25:29;;;;;;;;;;;;;;;6.28;100.00;99288.69;5055487;28;20043;-68
2024/01/02 02:27:57;;;;;;;7.18;2.13;;;;;;;6.41;100.00;99279.28;5070017;28;20290;-67
2024/01/02 02:30:25;;;;;;;4.53;1.73;;;;;;;6.31;100.00;99262.22;5050726;28;20075;-68
2024/01/02 02:32:54;;;;;;;6.47;1.40;;;;;;;6.32;100.00;99254.28;5034904;28;20578;-65
2024/01/02 02:35:22;;;;;;;5.45;1.40;;;;;;;6.33;100.00;99253.34;5068654;28;20053;-65
2024/01/02 02:37:54;;;;;;;7.63;1.65;;;;;;;6.27;100.00;99242.28;5051591;28;20036;-66
2024/01/02 02:40:24;;;;;;;5.47;1.48;;;;;;;6.36;100.00;99238.34;5069913;28;20040;-69
2024/01/02 02:42:53;;;;;;;5.47;1.50;;;;;;;6.37;100.00;99227.75;5059152;28;20520;-68
2024/01/02 02:45:21;;;;;;;8.25;1.50;;;;;;;6.43;100.00;99209.06;5069733;28;20040;-68
2024/01/02 02:47:49;;;;;;;5.20;1.42;;;;;;;6.41;100.00;99210.06;5057137;28;20064;-67
2024/01/02 02:50:18;;;;;;;4.25;1.33;;;;;;;6.43;100.00;99198.56;5033950;28;20091;-65
2024/01/02 02:52:45;;;;;;;5.75;1.40;;;;;;;6.42;100.00;99196.00;5051039;28;20384;-68
2024/01/02 02:55:15;;;;;;;4.93;1.48;;;;;;;6.43;100.00;99195.06;5056528;28;20059;-66
2024/01/02 02:57:46;;;;;;;4.90;1.42;;;;;;;6.27;100.00;99172.16;5075156;28;20515;-68
2024/01/02 03:00:15;;;;;;;4.13;1.58;;;;;;;6.27;100.00;99173.94;5073168;28;20044;-67
2024/01/02 03:02:46;;;;;;;4.03;1.40;;;;;;;6.29;100.00;99172.94;5070238;28;20040;-69
2024/01/02 03:05:16;;;;;;;3.70;1.80;;;;;;;6.29;100.00;99151.91;5064689;28;20612;-71
2024/01/02 03:07:43;;;;;;;5.47;1.52;;;;;;;6.38;100.00;99153.22;5040134;28;20476;-66
2024/01/02 03:10:14;;;;;;;4.45;1.30;;;;;;;6.25;100.00;99152.13;5060867;28;20143;-68
2024/01/02 03:12:42;;;;;;;6.07;1.38;;;;;;;6.40;100.00;99146.09;5058904;28;20051;-67
2024/01/02 03:15:15;;;;;;;6.53;1.42;;;;;;;6.34;100.00;99130.63;5054823;28;20045;-68
2024/01/02 03:17:44;;;;;;;4.20;1.38;;;;;;;6.31;100.00;99133.41;5064675;28;20461;-68
2024/01/02 03:20:12;;;;;;;2.90;1.20;;;;;;;6.36;100.00;99128.78;5053423;28;20048;-70
2024/01/02 03:22:40;;;;;;;3.55;1.67;;;;;;;6.34;100.00;99110.44;5067202;28;20407;-68
2024/01/02 03:25:10;;;;;;;3.92;1.25;;;;;;;6.34;100.00;99110.44;5058904;28;20067;-69
2024/01/02 03:27:38;;;;;;;4.53;1.65;;;;;;;6.28;100.00;99112.53;5074920;28;20068;-67
2024/01/02 03:30:07;;;;;;;5.03;1.45;;;;;;;6.27;100.00;99110.84;5054570;28;20051;-70
2024/01/02 03:32:38;;;;;;;5.45;1.50;;;;;;;6.27;100.00;99081.94;5055622;28;20107;-68
2024/01/02 03:35:07;;;;;;;4.13;1.10;;;;;;;6.22;100.00;99083.94;5056534;28;20048;-71
2024/01/02 03:37:37;;;;;;;4.30;1.08;;;;;;;6.20;100.00;99070.84;5058888;28;20045;-68
2024/01/02 03:40:06;;;;;;;5.90;1.40;;;;;;;6.18;100.00;99061.34;5060927;28;20129;-68
2024/01/02 03:42:36;;;;;;;4.40;1.60;;;;;;;6.20;100.00;99055.09;5050500;28;20044;-69
2024/01/02 03:45:07;;;;;;;5.55;1.60;;;;;;;6.23;100.00;99051.47;5053484;28;20064;-68
2024/01/02 03:47:35;;;;;;;2.90;1.40;;;;;;;6.17;100.00;99038.63;5074973;28;20071;-69
2024/01/02 03:50:06;;;;;;;5.85;1.63;;;;;;;6.20;100.00;99033.22;5071832;28;20074;-67
2024/01/02 03:52:34;;;;;;;5.50;1.20;;;;;;;6.25;100.00;99018.91;5066924;28;20064;-68
2024/01/02 03:55:02;;;;;;;4.63;1.38;;;;;;;6.32;100.00;99003.66;5059578;28;20051;-68
2024/01/02 03:57:29;;;;;;;4.57;1.80;;;;;;;6.27;100.00;99011.81;5078742;28;20524;-66
2024/01/02 03:59:58;;;;;;;4.60;1.10;;;;;;;6.26;100.00;98999.59;5058322;28;20075;-69
2024/01/02 04:02:26;;;;;;;2.65;1.20;;;;;;;6.27;100.00;98990.78;5038349;28;20052;-69
2024/01/02 04:04:55;;;;;;;4.35;1.38;;;;;;;6.19;100.00;98981.56;5059006;28;20127;-70
2024/01/02 04:07:27;;;;;;;2.60;0.90;;;;;;;6.19;100.00;98971.91;5068979;28;20054;-71
2024/01/02 04:09:57;;;;;;;3.80;1.35;;;;;;;6.21;100.00;98971.81;5064532;28;20040;-69
2024/01/02 04:12:25;;;;;;;1.90;0.93;;;;;;;6.23;100.00;98967.34;5071197;28;20043;-68
2024/01/02 04:14:54;;;;;;;3.92;1.20;;;;;;;6.11;100.00;98960.94;5046858;28;20052;-69
2024/01/02 04:17:23;;;;;;;5.57;1.20;;;;;;;6.17;100.00;98965.03;5063036;28;20058;-69
2024/01/02 04:19:52;;;;;;;1.92;1.10;;;;;;;6.16;100.00;98956.28;5063568;28;20054;-69
2024/01/02 04:22:20;;;;;;;3.38;1.02;;;;;;;6.15;100.00;98951.09;5039569;28;20063;-70
2024/01/02 04:24:50;;;;;;;3.03;1.05;;;;;;;6.11;100.00;98942.56;5050602;28;20211;-70
2024/01/02 04:27:17;;;;;;;2.83;0.90;;;;;;;6.10;100.00;98927.72;5062652;28;20075;-70
2024/01/02 04:29:46;;;;;;;3.47;1.00;;;;;;;6.19;100.00;98932.47;5070293;28;20083;-69
2024/01/02 04:32:16;;;;;;;2.42;0.90;;;;;;;6.16;100.00;98916.00;5067774;28;20052;-70
2024/01/02 04:34:46;;;;;;;2.90;1.10;;;;;;;6.14;100.00;98894.25;5062730;28;20044;-70
2024/01/02 04:37:14;;;;;;;1.60;0.80;;;;;;;6.21;100.00;98900.84;5074531;28;22457;-69
2024/01/02 04:39:42;;;;;;;2.30;0.65;;;;;;;6.18;100.00;98898.38;5066653;28;20059;-70
2024/01/02 04:42:17;;;;;;;3.10;0.80;;;;;;;6.18;100.00;98875.56;5067690;28;20693;-70
2024/01/02 04:44:45;;;;;;;1.73;0.90;;;;;;;6.22;100.00;98868.38;5073267;28;20135;-70
2024/01/02 04:47:14;;;;;;;3.15;0.93;;;;;;;6.23;100.00;98859.56;5073445;28;20036;-69
2024/01/02 04:49:42;;;;;;;3.47;1.00;;;;;;;6.22;100.00;98855.25;5057243;28;20040;-69
2024/01/02 04:52:11;;;;;;;1.05;0.93;;;;;;;6.24;100.00;98869.16;5055905;28;20272;-70
2024/01/02 04:54:39;;;;;;;3.00;1.00;;;;;;;6.22;100.00;98855.25;5064136;28;20127;-70
2024/01/02 04:57:07;;;;;;;3.55;1.00;;;;;;;6.23;100.00;98841.16;5060573;28;20033;-72
2024/01/02 04:59:37;;;;;;;1.98;0.98;;;;;;;6.20;100.00;98820.31;5076216;28;20057;-70
2024/01/02 05:02:05;;;;;;;2.40;1.13;;;;;;;6.26;100.00;98827.88;5048246;28;20044;-69
2024/01/02 05:04:33;;;;;;;2.83;1.48;;;;;;;6.25;100.00;98826.16;5068100;28;20058;-70
2024/01/02 05:07:05;;;;;;;3.40;1.38;;;;;;;6.28;100.00;98805.81;5070628;28;20098;-72
2024/01/02 05:09:38;;;;;;;2.80;1.20;;;;;;;6.24;100.00;98800.81;5070203;28;20508;-70
2024/01/02 05:12:06;;;;;;;1.52;1.10;;;;;;;6.20;100.00;98783.50;5060450;28;20079;-68
2024/01/02 05:14:34;;;;;;;3.13;1.10;;;;;;;6.27;100.00;98783.09;5061068;28;20040;-70
2024/01/02 05:17:06;;;;;;;3.70;1.42;;;;;;;6.33;100.00;98771.38;5053064;28;20159;-71
2024/01/02 05:19:35;;;;;;;1.30;1.20;;;;;;;6.30;100.00;98756.63;5055537;28;20052;-69
2024/01/02 05:22:04;;;;;;;3.30;1.20;;;;;;;6.24;100.00;98756.13;5067097;28;20283;-71
2024/01/02 05:24:36;;;;;;;4.15;1.33;;;;;;;6.33;100.00;98750.34;5070435;28;20104;-70
2024/01/02 05:27:08;;;;;;;2.55;1.20;;;;;;;6.32;100.00;98759.16;5060448;28;20040;-70
2024/01/02 05:29:37;;;;;;;3.80;1.48;;;;;;;6.33;100.00;98751.19;5048136;28;20040;-71
2024/01/02 05:32:08;;;;;;;2.85;1.30;;;;;;;6.37;100.00;98741.38;5067713;28;20136;-69
2024/01/02 05:34:37;;;;;;;3.35;1.75;;;;;;;6.29;100.00;98754.94;5070090;28;20100;-68
2024/01/02 05:37:06;;;;;;;2.33;1.17;;;;;;;6.31;100.00;98744.31;5055692;28;20401;-72
2024/01/02 05:39:34;;;;;;;4.78;1.50;;;;;;;6.36;100.00;98744.94;5070033;28;20049;-70
2024/01/02 05:42:02;;;;;;;2.50;1.50;;;;;;;6.41;100.00;98736.78;5071164;28;20060;-72
2024/01/02 05:44:32;;;;;;;3.28;1.67;;;;;;;6.40;100.00;98741.19;5054501;28;20470;-71
2024/01/02 05:47:03;;;;;;;2.20;1.77;;;;;;;6.48;100.00;98724.97;5062103;28;20054;-69
2024/01/02 05:49:34;;;;;;;2.90;1.55;;;;;;;6.41;100.00;98711.34;5053903;28;20044;-68
2024/01/02 05:52:04;;;;;;;2.13;1.38;;;;;;;6.39;100.00;98710.59;5077107;28;20058;-69
2024/01/02 05:54:33;;;;;;;3.75;1.85;;;;;;;6.46;100.00;98719.78;5039657;28;20055;-71
2024/01/02 05:57:04;;;;;;;3.33;1.90;;;;;;;6.42;100.00;98706.94;5073651;28;20055;-69
2024/01/02 05:59:34;;;;;;;2.03;1.85;;;;;;;6.44;100.00;98694.56;5060968;28;20117;-68
2024/01/02 06:02:03;;;;;;;2.42;1.80;;;;;;;6.50;100.00;98705.56;5075890;28;20044;-68
2024/01/02 06:04:31;;;;;;;2.30;2.10;;;;;;;6.47;100.00;98700.47;5057864;28;20056;-69
2024/01/02 06:07:02;;;;;;;3.95;2.50;;;;;;;6.44;100.00;98699.81;5054414;28;20036;-68
2024/01/02 06:09:32;;;;;;;;;;;;;;;6.42;100.00;98713.03;5073222;28;20052;-71
2024/01/02 06:12:00;;;;;;;5.53;2.80;;;;;;;6.41;100.00;98697.34;5046729;28;19931;-70
2024/01/02 06:14:30;;;;;;;3.25;2.40;;;;;;;6.46;100.00;98704.03;5068183;28;20543;-68
2024/01/02 06:16:59;;;;;;;4.03;2.35;;;;;;;6.52;100.00;98706.31;5054676;28;20131;-69
2024/01/02 06:19:29;;;;;;;4.38;2.40;;;;;;;6.54;100.00;98707.06;5072237;28;20044;-69
2024/01/02 06:21:57;;;;;;;2.15;1.77;;;;;;;6.54;100.00;98701.81;5046528;28;20036;-70
2024/01/02 06:24:29;;;;;;;3.80;2.50;;;;;;;6.51;100.00;98704.63;5050523;28;20044;-69
2024/01/02 06:26:58;;;;;;;2.60;2.40;;;;;;;6.51;100.00;98706.41;5065814;28;20090;-70
2024/01/02 06:29:26;;;;;;;5.88;3.05;;;;;;;6.55;100.00;98693.00;5057962;28;20112;-68
2024/01/02 06:31:54;;;;;;;2.97;2.63;;;;;;;6.53;100.00;98699.28;5053934;28;20044;-69
2024/01/02 06:34:25;;;;;;;5.55;2.80;;;;;;;6.56;100.00;98699.94;5069954;28;20475;-71
2024/01/02 06:36:53;;;;;;;4.55;3.05;;;;;;;6.52;100.00;98710.72;5058299;28;20044;-71
2024/01/02 06:39:23;;;;;;;4.97;3.03;;;;;;;6.52;100.00;98706.31;5059352;28;20041;-70
2024/01/02 06:41:52;;;;;;;4.70;3.10;;;;;;;6.53;100.00;98697.50;5051560;28;20050;-71
2024/01/02 06:44:23;;;;;;;3.30;2.85;;;;;;;6.53;100.00;98686.13;5050004;28;20159;-67
2024/01/02 06:46:52;;;;;;;4.60;2.88;;;;;;;6.51;100.00;98666.94;5045960;28;20044;-72
2024/01/02 06:49:20;;;;;;;3.38;2.90;;;;;;;6.58;100.00;98674.41;5057319;28;20067;-69
2024/01/02 06:51:49;;;;;;;4.28;2.80;;;;;;;6.61;100.00;98679.47;5044548;28;20658;-71
2024/01/02 06:54:17;;;;;;;3.83;2.50;;;;;;;6.64;100.00;98684.56;5055314;28;20136;-70
2024/01/02 06:56:45;;;;;;;3.70;2.60;;;;;;;6.60;100.00;98672.53;5066855;28;20045;-69
2024/01/02 06:59:15;;;;;;;7.95;4.22;;;;;;;6.66;100.00;98685.31;5058641;28;20045;-70
2024/01/02 07:01:44;;;;;;;5.75;2.63;;;;;;;6.64;100.00;98678.44;5068180;28;20037;-71
2024/01/02 07:04:12;;;;;;;4.57;2.40;;;;;;;6.61;100.00;98681.28;5065920;28;20044;-72
2024/01/02 07:06:40;;;;;;;2.72;2.28;;;;;;;6.66;100.00;98679.22;5054721;28;20145;-70
2024/01/02 07:09:09;;;;;;;2.95;1.75;;;;;;;6.73;100.00;98684.97;5066788;28;20059;-68
2024/01/02 07:11:47;;;;;;;3.97;1.92;;;;;;;6.76;100.00;98679.53;5057207;28;20048;-70
2024/01/02 07:14:18;;;;;;;3.22;1.70;;;;;;;6.64;100.00;98657.41;5071270;28;20072;-72
2024/01/02 07:16:47;;;;;;;3.58;1.75;;;;;;;6.81;100.00;98678.31;5050535;28;20509;-71
2024/01/02 07:19:17;;;;;;;6.30;1.95;;;;;;;6.83;100.00;98681.69;5069635;28;20100;-72
2024/01/02 07:21:47;;;;;;;3.25;1.85;;;;;;;6.82;100.00;98673.91;5055475;28;20052;-72
2024/01/02 07:24:16;;;;;;;3.08;1.67;;;;;;;6.84;100.00;98690.44;5059990;28;20044;-70
2024/01/02 07:26:44;;;;;;;2.88;1.50;;;;;;;6.89;100.00;98676.09;5033861;28;20044;-69
2024/01/02 07:29:14;;;;;;;2.78;1.30;;;;;;;6.93;100.00;98674.09;5051894;28;20131;-70
2024/01/02 07:31:44;;;;;;;2.15;1.35;;;;;;;6.94;100.00;98678.44;5053980;28;20048;-71
2024/01/02 07:34:13;;;;;;;2.08;1.20;;;;;;;6.86;100.00;98678.06;5055598;28;20044;-71
2024/01/02 07:36:41;;;;;;;2.80;1.00;;;;;;;6.94;100.00;98684.53;5050291;28;20040;-72
2024/01/02 07:39:10;;;;;;;1.98;0.93;;;;;;;6.97;100.00;98694.03;5045684;28;20118;-71
2024/01/02 07:41:38;;;;;;;2.67;1.00;;;;;;;6.98;100.00;98693.09;5051219;28;20055;-71
2024/01/02 07:44:11;;;;;;;2.70;0.90;;;;;;;6.97;100.00;98694.88;5066843;28;20890;-70
2024/01/02 07:46:41;;;;;;;3.58;0.73;;;;;;;6.98;100.00;98686.06;5052268;28;20044;-71
2024/01/02 07:49:11;;;;;;;2.17;1.10;;;;;;;7.01;100.00;98690.28;5035957;28;20066;-70
2024/01/02 07:51:40;;;;;;;0.77;0.75;;;;;;;7.11;100.00;98686.16;5072342;28;20109;-71
2024/01/02 07:54:09;;;;;;;2.63;0.70;;;;;;;7.12;100.00;98671.22;5076082;28;20036;-69
2024/01/02 07:56:37;;;;;;;1.30;0.70;;;;;;;7.24;100.00;98684.47;5060579;28;20423;-66
2024/01/02 07:59:07;;;;;;;2.70;0.80;;;;;;;7.31;100.00;98684.97;5074019;28;20070;-72
2024/01/02 08:01:35;;;;;;;1.02;0.90;;;;;;;7.31;100.00;98691.09;5063485;28;20055;-69
2024/01/02 08:04:04;;;;;;;1.27;0.63;;;;;;;7.31;100.00;98693.72;5072537;28;20139;-71
2024/01/02 08:06:35;;;;;;;1.48;0.70;;;;;;;7.36;100.00;98690.81;5068885;28;20040;-66
2024/01/02 08:09:03;;;;;;;2.25;0.60;;;;;;;7.49;100.00;98685.63;5074930;28;20098;-69
2024/01/02 08:11:32;;;;;;;2.45;0.60;;;;;;;7.48;100.00;98678.69;5058452;28;20045;-69
2024/01/02 08:14:01;;;;;;;2.13;0.70;;;;;;;7.48;100.00;98687.44;5065227;28;20071;-69
2024/01/02 08:16:32;;;;;;;3.83;0.80;;;;;;;7.51;100.00;98689.88;5070610;28;20048;-68
2024/01/02 08:19:03;;;;;;;3.08;0.70;;;;;;;7.48;100.00;98676.03;5059052;28;20043;-68
2024/01/02 08:21:34;;;;;;;1.40;0.80;;;;;;;7.51;100.00;98681.97;5063418;28;20131;-69
2024/01/02 08:24:02;;;;;;;1.05;0.60;;;;;;;7.55;100.00;98682.63;5077506;28;21001;-69
2024/01/02 08:26:33;;;;;;;1.38;0.55;;;;;;;7.51;100.00;98678.50;5076637;28;20040;-71
2024/01/02 08:29:02;;;;;;;0.70;0.43;;;;;;;7.57;100.00;98691.25;5062747;28;20048;-72
2024/01/02 08:31:33;;;;;;;0.52;0.30;;;;;;;7.58;100.00;98691.16;5062176;28;20055;-69
2024/01/02 08:34:02;;;;;;;0.55;0.30;;;;;;;7.63;100.00;98683.84;5060052;28;20040;-71
2024/01/02 08:36:31;;;;;;;0.68;0.30;;;;;;;7.70;100.00;98703.59;5057450;28;20051;-66
2024/01/02 08:39:00;;;;;;;1.58;0.40;;;;;;;7.73;100.00;98687.59;5069059;28;20669;-69
2024/01/02 08:41:31;;;;;;;2.90;0.30;;;;;;;7.78;100.00;98697.84;5053657;28;20040;-70
2024/01/02 08:44:00;;;;;;;0.30;0.30;;;;;;;7.91;100.00;98711.94;5057288;28;20467;-68
2024/01/02 08:46:30;;;;;;;1.80;0.38;;;;;;;7.98;100.00;98712.41;5071571;28;20045;-68
2024/01/02 08:49:03;;;;;;;0.90;0.30;;;;;;;8.01;100.00;98720.97;5053742;28;20177;-69
2024/01/02 08:51:31;;;;;;;1.20;0.35;;;;;;;8.01;100.00;98714.88;5054159;28;20044;-68
2024/01/02 08:54:01;;;;;;;0.68;0.22;;;;;;;7.98;100.00;98709.78;5057812;28;20048;-67
2024/01/02 08:56:30;;;;;;;0.82;0.20;;;;;;;8.08;100.00;98724.06;5071627;28;20044;-68
2024/01/02 08:58:59;;;;;;;0.85;0.30;;;;;;;8.10;100.00;98738.00;5054857;28;20046;-66
2024/01/02 09:01:27;;;;;;;0.63;0.32;;;;;;;8.13;100.00;98731.69;5058532;28;20107;-68
2024/01/02 09:03:55;;;;;;;0.95;0.30;;;;;;;8.15;100.00;98735.06;5064373;28;20045;-67
2024/01/02 09:06:24;;;;;;;0.40;0.38;;;;;;;8.14;100.00;98741.28;5058164;28;20055;-66
2024/01/02 09:08:57;;;;;;;0.20;0.20;;;;;;;8.10;100.00;98736.22;5051072;28;20435;-70
2024/01/02 09:11:26;;;;;;;0.70;0.20;;;;;;;8.17;100.00;98741.94;5072872;28;20059;-70
2024/01/02 09:13:55;;;;;;;0.93;0.40;;;;;;;8.19;100.00;98755.00;5061378;28;20527;-70
2024/01/02 09:16:31;;;;;;;0.40;0.30;;;;;;;8.14;100.00;98744.78;5067273;28;20485;-69
2024/01/02 09:19:00;;;;;;;0.30;0.30;;;;;;;8.22;100.00;98760.09;5057162;28;20044;-68
2024/01/02 09:21:29;;;;;;;0.28;0.22;;;;;;;8.20;100.00;98764.63;5070482;28;20094;-67
2024/01/02 09:23:59;;;;;;;0.22;0.22;;;;;;;8.26;100.00;98762.44;5045982;28;20064;-67
2024/01/02 09:26:31;;;;;;;0.20;0.20;;;;;;;8.28;100.00;98759.72;5072476;28;20132;-67
2024/01/02 09:29:00;;;;;;;1.05;0.30;;;;;;;8.33;100.00;98752.41;5066059;28;20044;-70
2024/01/02 09:31:30;;;;;;;1.02;0.25;;;;;;;8.39;100.00;98754.63;5042622;28;20060;-70
2024/01/02 09:33:59;;;;;;;0.45;0.30;;;;;;;8.41;100.00;98763.28;5049881;28;20040;-66
2024/01/02 09:36:29;;;;;;;0.30;0.30;;;;;;;8.41;100.00;98758.88;5067908;28;20044;-69
2024/01/02 09:38:58;;;;;;;0.98;0.57;;;;;;;8.39;100.00;98746.72;5064771;28;20044;-70
2024/01/02 09:42:09;;;;;;;0.40;0.40;;;;;;;8.43;100.00;98764.91;5058138;28;20547;-68
2024/01/02 09:44:53;;;;;;;0.40;0.40;;;;;;;8.44;100.00;98760.47;5035015;28;20052;-68
2024/01/02 09:47:41;;;;;;;0.30;0.30;;;;;;;8.42;100.00;98767.63;5064852;28;20495;-65
2024/01/02 09:50:13;;;;;;;1.05;0.35;;;;;;;8.41;100.00;98758.03;5055844;28;20040;-68
2024/01/02 09:53:05;;;;;;;0.32;0.20;;;;;;;8.48;100.00;98769.03;5060988;28;20032;-69
2024/01/02 09:55:43;;;;;;;1.02;0.52;;;;;;;8.48;100.00;98767.25;5071064;28;20054;-68
2024/01/02 09:58:26;;;;;;;0.32;0.32;;;;;;;8.58;100.00;98773.63;5055856;28;20105;-68
2024/01/02 10:01:05;;;;;;;0.40;0.30;;;;;;;8.58;100.00;98757.78;5059520;28;20135;-68
2024/01/02 10:03:53;;;;;;;1.15;0.30;;;;;;;8.59;100.00;98767.41;5072033;28;20110;-70
2024/01/02 10:06:38;;;;;;;0.40;0.35;;;;;;;8.59;100.00;98767.41;5069783;28;20468;-67
2024/01/02 10:09:30;;;;;;;0.30;0.30;;;;;;;8.62;100.00;98761.91;5064458;28;20044;-69
2024/01/02 10:12:12;;;;;;;0.68;0.30;;;;;;;8.65;100.00;98767.00;5059333;28;20037;-69
2024/01/02 10:14:51;;;;;;;0.30;0.30;;;;;;;8.65;100.00;98767.00;5053053;28;20067;-69
2024/01/02 10:17:33;;;;;;;0.60;0.57;;;;;;;8.65;100.00;98774.94;5048037;28;20213;-68
2024/01/02 10:20:09;;;;;;;1.08;0.57;;;;;;;8.59;100.00;98769.19;5068739;28;20047;-69
2024/01/02 10:22:47;;;;;;;0.40;0.30;;;;;;;8.66;100.00;98770.47;5070492;28;20037;-69
2024/01/02 10:25:19;;;;;;;0.73;0.40;;;;;;;8.65;100.00;98766.16;5062562;28;20052;-69
2024/01/02 10:28:02;;;;;;;1.20;0.40;;;;;;;8.65;100.00;98763.53;5064059;28;20131;-69
2024/01/02 10:30:38;;;;;;;0.30;0.30;;;;;;;8.67;100.00;98769.53;5051090;28;20040;-68
2024/01/02 10:33:17;;;;;;;1.40;0.40;;;;;;;8.67;100.00;98767.72;5063798;28;20040;-66
2024/01/02 10:35:55;;;;;;;0.82;0.60;;;;;;;8.66;100.00;98757.25;5060132;28;20064;-69
2024/01/02 10:38:34;;;;;;;0.45;0.35;;;;;;;8.65;100.00;98748.53;5077159;28;20048;-69
2024/01/02 10:41:06;;;;;;;0.95;0.40;;;;;;;8.65;100.00;98755.59;5054568;28;20063;-67
2024/01/02 10:43:43;;;;;;;1.02;0.50;;;;;;;8.61;100.00;98741.75;5061162;28;20060;-66
2024/01/02 10:46:19;;;;;;;1.27;0.50;;;;;;;8.65;100.00;98747.69;5048425;28;20546;-69
2024/01/02 10:48:55;;;;;;;1.40;0.50;;;;;;;8.65;100.00;98743.25;5070931;28;20037;-68
2024/01/02 10:51:39;;;;;;;0.75;0.55;;;;;;;8.71;100.00;98748.13;5047855;28;20506;-69
2024/01/02 10:54:10;;;;;;;1.02;0.50;;;;;;;8.70;100.00;98735.88;5074022;28;20827;-69
2024/01/02 10:56:42;;;;;;;0.80;0.60;;;;;;;8.74;100.00;98741.78;5064262;28;20144;-69
2024/01/02 10:59:29;;;;;;;0.68;0.60;;;;;;;8.74;100.00;98725.97;5036877;28;20041;-69
2024/01/02 11:02:04;;;;;;;0.85;0.50;;;;;;;8.76;100.00;98724.91;5062258;28;20413;-68
2024/01/02 11:04:41;;;;;;;1.35;0.80;;;;;;;8.67;100.00;98714.94;5077779;28;20101;-67
2024/01/02 11:07:12;;;;;;;1.75;0.98;;;;;;;8.74;100.00;98712.75;5074774;28;20044;-67
2024/01/02 11:09:55;;;;;;;1.80;0.80;;;;;;;8.84;100.00;98727.03;5062100;28;20553;-69
2024/01/02 11:12:35;;;;;;;0.95;0.90;;;;;;;8.78;100.00;98711.63;5073829;28;20041;-69
2024/01/02 11:15:08;;;;;;;1.30;0.95;;;;;;;8.78;100.00;98711.63;5042765;28;20074;-70
2024/01/02 11:17:39;;;;;;;0.95;0.75;;;;;;;8.75;100.00;98711.81;5057419;28;20045;-68
2024/01/02 11:20:14;;;;;;;0.63;0.55;;;;;;;8.81;100.00;98705.31;5053537;28;20054;-69
2024/01/02 11:22:51;;;;;;;0.95;0.68;;;;;;;8.83;100.00;98706.88;5060607;28;20098;-68
2024/01/02 11:25:29;;;;;;;0.60;0.50;;;;;;;8.82;100.00;98697.25;5065750;28;20044;-69
2024/01/02 11:28:13;;;;;;;1.15;0.98;;;;;;;8.91;100.00;98712.50;5046480;28;20047;-66
2024/01/02 11:30:48;;;;;;;0.63;0.60;;;;;;;8.92;100.00;98697.50;5062565;28;20044;-67
2024/01/02 11:33:29;;;;;;;1.10;0.70;;;;;;;8.90;100.00;98700.25;5069852;28;20051;-68
2024/01/02 11:36:13;;;;;;;0.98;0.40;;;;;;;8.90;100.00;98684.41;5070267;28;20073;-70
2024/01/02 11:38:57;;;;;;;3.47;1.02;;;;;;;8.87;100.00;98684.59;5058556;28;20717;-68
2024/01/02 11:41:39;;;;;;;0.50;0.50;;;;;;;8.87;100.00;98683.75;5073079;28;20523;-69
2024/01/02 11:44:15;;;;;;;0.50;0.40;;;;;;;8.88;100.00;98681.03;5077297;28;20447;-68
2024/01/02 11:46:50;;;;;;;0.30;0.30;;;;;;;8.97;100.00;98679.56;5058958;28;20048;-69
2024/01/02 11:49:22;;;;;;;6.03;0.70;;;;;;;8.96;100.00;98669.97;5051229;28;20053;-68
2024/01/02 11:51:55;;;;;;;1.17;0.70;;;;;;;8.91;100.00;98674.69;5055705;28;20052;-69